M I D A S
Marine Information and Data Acquisition System
Tripno 593 of the Zeeleeuw from 2003-09-18 06:17:58 to 2003-09-18 13:10:43
Back to CruiseResearch ActivitiesStationsMapUnderway DataData graphs

EquipmentUnitsComment
TimeDGPSUTC
LatitudeDGPSDM.mWGS84
LongitudeDGPSDM.mWGS84
TemperatureSBE03/SBE38deg celciusITS90
ConductivitySBE21S/mITS90
SalinitySBE21 Practical Salinity Units
ChlorophylAChelsea fluorimeterg/lCalibrated in Aceton
Missing or incorrect values are displayed as -999
Sea surface data collected by the RV Zeeleeuw from 2003-09-18 06:17:58 to 2003-09-18 13:10:43
Time Latitude Longitude Temperature Conductivity Salinity ChlorophylA
2003-09-18 06:19:02 51°13.8 2°55.66 -999 0.139239 0.709496 -0.275608
2003-09-18 06:20:02 51°13.94 2°55.55 19.990009 4.229619 29.546389 2.387435
2003-09-18 06:21:02 51°14.07 2°55.45 19.467289 4.032989 29.612631 2.589691
2003-09-18 06:22:02 51°14.21 2°55.33 18.679572 3.987234 29.375767 2.454853
2003-09-18 06:23:02 51°14.34 2°55.12 18.542824 3.980171 29.357586 2.387435
2003-09-18 06:24:02 51°14.48 2°54.93 18.39529 3.978169 29.39888 2.286306
2003-09-18 06:25:02 51°14.65 2°54.76 18.463492 4.15552 30.929437 2.151469
2003-09-18 06:26:02 51°14.83 2°54.56 18.317779 4.289774 32.049428 1.746956
2003-09-18 06:27:02 51°15.03 2°54.36 18.398437 4.349051 32.540033 1.645828
2003-09-18 06:28:02 51°15.22 2°54.17 18.34799 4.367088 32.700632 1.409862
2003-09-18 06:29:02 51°15.43 2°54 18.381087 4.36192 32.682546 1.612118
2003-09-18 06:30:02 51°15.64 2°53.85 18.446365 4.36192 32.650518 1.746956
2003-09-18 06:31:02 51°15.85 2°53.68 18.485039 4.364662 32.671178 1.443571
2003-09-18 06:32:02 51°16.06 2°53.51 18.525179 4.380696 32.809959 1.173896
2003-09-18 06:33:02 51°16.27 2°53.35 18.470606 4.388396 32.865817 1.207606
2003-09-18 06:34:02 51°16.48 2°53.2 18.605391 4.40559 32.987904 1.342443
2003-09-18 06:35:02 51°16.69 2°53.04 18.526212 4.42215 33.07689 1.578409
2003-09-18 06:36:02 51°16.9 2°52.89 18.696889 4.437973 33.161845 1.645828
2003-09-18 06:37:02 51°17.12 2°52.73 18.69322 4.452003 33.229357 1.780665
2003-09-18 06:38:02 51°17.35 2°52.69 18.565916 4.448732 33.203206 1.780665
2003-09-18 06:39:02 51°17.59 2°52.67 18.563355 4.431115 33.063641 1.746956
2003-09-18 06:40:02 51°17.83 2°52.65 18.556209 4.448205 33.209201 1.780665
2003-09-18 06:41:02 51°18.06 2°52.62 18.62545 4.438711 33.141455 1.780665
2003-09-18 06:42:02 51°18.3 2°52.62 18.602253 4.432171 33.114509 1.780665
2003-09-18 06:43:02 51°18.5 2°52.83 18.570666 4.43618 33.1561 1.746956
2003-09-18 06:44:02 51°18.59 2°53.17 18.569303 4.439239 33.181677 1.814375
2003-09-18 06:45:02 51°18.69 2°53.52 18.621323 4.440505 33.189369 1.881794
2003-09-18 06:46:02 51°18.8 2°53.86 18.633373 4.433437 33.112394 1.982922
2003-09-18 06:47:02 51°18.9 2°54.2 18.563149 4.426896 33.056036 1.949212
2003-09-18 06:48:02 51°19 2°54.54 18.576076 4.412444 32.938242 1.915503
2003-09-18 06:49:02 51°19.1 2°54.89 18.640304 4.400946 32.823991 2.117759
2003-09-18 06:50:02 51°19.21 2°55.23 18.766154 4.408857 32.866526 2.151469
2003-09-18 06:51:02 51°19.31 2°55.57 18.637581 4.413815 32.889557 2.387435
2003-09-18 06:52:02 51°19.42 2°55.91 18.657631 4.399257 32.772279 2.320016
2003-09-18 06:53:02 51°19.52 2°56.25 18.681551 4.40949 32.866658 2.218888
2003-09-18 06:54:02 51°19.63 2°56.59 18.618929 4.406642 32.849775 2.286306
2003-09-18 06:55:02 51°19.73 2°56.93 18.654744 4.397042 32.76237 2.252597
2003-09-18 06:56:02 51°19.84 2°57.27 18.629741 4.39103 32.708308 2.387435
2003-09-18 06:57:02 51°19.94 2°57.62 18.728543 4.384068 32.64807 2.387435
2003-09-18 06:58:02 51°20.05 2°57.96 18.593584 4.375418 32.576077 2.421144
2003-09-18 06:59:02 51°20.15 2°58.3 18.899053 4.36487 32.489442 2.522272
2003-09-18 07:00:02 51°20.26 2°58.64 18.733405 4.36065 32.45209 2.555982
2003-09-18 07:01:02 51°20.34 2°58.99 18.740862 4.358541 32.42891 2.65711
2003-09-18 07:02:02 51°20.43 2°59.34 18.647689 4.354849 32.395965 2.65711
2003-09-18 07:03:02 51°20.52 2°59.69 18.759235 4.358857 32.418026 2.791947
2003-09-18 07:04:02 51°20.61 3°0.04 18.660395 4.356431 32.393364 2.690819
2003-09-18 07:05:02 51°20.7 3°0.4 18.8993 4.347676 32.317263 2.65711
2003-09-18 07:06:02 51°20.79 3°0.75 18.623593 4.360228 32.42098 2.589691
2003-09-18 07:07:02 51°20.88 3°1.1 18.78032 4.358118 32.406263 2.555982
2003-09-18 07:08:02 51°20.97 3°1.46 18.659487 4.356642 32.41425 2.522272
2003-09-18 07:09:02 51°21.05 3°1.81 18.697507 4.356959 32.421387 2.522272
2003-09-18 07:10:02 51°21.14 3°2.17 18.693055 4.354005 32.398517 2.522272
2003-09-18 07:11:02 51°21.22 3°2.53 18.711316 4.348837 32.356669 2.522272
2003-09-18 07:12:02 51°21.31 3°2.88 18.667695 4.352107 32.396804 2.555982
2003-09-18 07:13:02 51°21.39 3°3.24 18.637127 4.35179 32.396988 2.555982
2003-09-18 07:14:02 51°21.47 3°3.59 18.671613 4.349681 32.380565 2.522272
2003-09-18 07:15:02 51°21.56 3°3.95 18.664767 4.346517 32.354806 2.454853
2003-09-18 07:16:02 51°21.64 3°4.3 18.607743 4.354322 32.420867 2.387435
2003-09-18 07:17:02 51°21.72 3°4.65 18.586771 4.354427 32.412164 2.454853
2003-09-18 07:18:02 51°21.81 3°5 18.657755 4.347044 32.343447 2.454853
2003-09-18 07:19:02 51°21.89 3°5.35 18.628999 4.357486 32.428027 2.421144
2003-09-18 07:20:02 51°21.97 3°5.7 18.797406 4.35622 32.375874 2.320016
2003-09-18 07:21:02 51°22.05 3°6.05 18.671077 4.361705 32.456915 2.218888
2003-09-18 07:22:02 51°22.12 3°6.4 18.752233 4.364975 32.475647 2.252597
2003-09-18 07:23:02 51°22.19 3°6.75 18.730891 4.363709 32.457231 2.185178
2003-09-18 07:24:02 51°22.26 3°7.1 18.702536 4.365291 32.461366 2.151469
2003-09-18 07:25:02 51°22.33 3°7.45 18.710945 4.366979 32.469756 2.185178
2003-09-18 07:26:02 51°22.4 3°7.8 18.656105 4.364658 32.443155 2.218888
2003-09-18 07:27:02 51°22.48 3°8.15 18.795965 4.366029 32.444415 2.252597
2003-09-18 07:28:02 51°22.54 3°8.48 18.72743 4.365607 32.439786 2.218888
2003-09-18 07:29:02 51°22.6 3°8.76 18.587597 4.36624 32.442228 2.353725
2003-09-18 07:30:02 51°22.64 3°8.99 18.582559 4.364552 32.433276 2.286306
2003-09-18 07:31:02 51°22.68 3°9.12 18.579008 4.369405 32.476955 2.151469
2003-09-18 07:32:02 51°22.71 3°9.21 18.579297 4.366768 32.457302 2.117759
2003-09-18 07:33:02 51°22.72 3°9.3 18.578471 4.364552 32.439464 2.185178
2003-09-18 07:34:02 51°22.73 3°9.4 18.57525 4.37278 32.508381 2.151469
2003-09-18 07:35:02 51°22.71 3°9.48 18.567403 4.372991 32.511262 2.218888
2003-09-18 07:36:01 51°22.72 3°9.49 18.562983 4.370882 32.499371 2.117759
2003-09-18 07:37:01 51°22.72 3°9.51 18.562818 4.372569 32.517911 2.050341
2003-09-18 07:38:01 51°22.72 3°9.53 18.55877 4.369932 32.495428 2.050341
2003-09-18 07:39:01 51°22.72 3°9.54 18.556085 4.36719 32.475454 2.050341
2003-09-18 07:40:01 51°22.72 3°9.56 18.550756 4.366557 32.472449 1.982922
2003-09-18 07:41:01 51°22.72 3°9.57 18.546088 4.366768 32.477021 2.050341
2003-09-18 07:42:01 51°22.72 3°9.59 18.539808 4.36603 32.475394 2.016631
2003-09-18 07:43:02 51°22.71 3°9.6 18.527576 4.364975 32.474519 2.08405
2003-09-18 07:44:01 51°22.71 3°9.6 18.515921 4.360861 32.449334 2.050341
2003-09-18 07:45:01 51°22.7 3°9.59 18.508068 4.366768 32.506932 2.08405
2003-09-18 07:46:01 51°22.7 3°9.57 18.503107 4.374574 32.575281 2.016631
2003-09-18 07:47:01 51°22.7 3°9.54 18.505381 4.37257 32.560865 2.016631
2003-09-18 07:48:01 51°22.71 3°9.51 18.506331 4.363182 32.478225 2.08405
2003-09-18 07:49:01 51°22.72 3°9.49 18.507572 4.370882 32.543424 2.117759
2003-09-18 07:50:01 51°22.73 3°9.47 18.510424 4.366874 32.50894 2.050341
2003-09-18 07:51:01 51°22.73 3°9.45 18.523567 4.371199 32.540401 2.117759
2003-09-18 07:52:01 51°22.74 3°9.43 18.537659 4.370566 32.523268 2.117759
2003-09-18 07:53:01 51°22.74 3°9.41 18.576448 4.367612 32.491368 2.08405
2003-09-18 07:54:01 51°22.74 3°9.39 18.545096 4.368983 32.499383 2.08405
2003-09-18 07:55:01 51°22.75 3°9.36 18.546005 4.365397 32.469005 2.117759
2003-09-18 07:56:01 51°22.75 3°9.33 18.544435 4.371198 32.517236 2.151469
2003-09-18 07:57:01 51°22.75 3°9.3 18.55088 4.366346 32.475769 2.151469
2003-09-18 07:58:01 51°22.75 3°9.27 18.556292 4.363814 32.450783 2.117759
2003-09-18 07:59:01 51°22.75 3°9.24 18.592097 4.364025 32.447467 2.117759
2003-09-18 08:00:01 51°22.76 3°9.2 18.563975 4.370354 32.496115 2.185178
2003-09-18 08:01:01 51°22.76 3°9.15 18.567527 4.368244 32.47633 2.151469
2003-09-18 08:02:01 51°22.77 3°9.11 18.573144 4.367822 32.469444 2.185178
2003-09-18 08:03:01 51°22.83 3°8.98 18.58194 4.370881 32.489787 2.151469
2003-09-18 08:04:01 51°22.92 3°8.78 18.597464 4.369932 32.472325 2.185178
2003-09-18 08:05:01 51°23.01 3°8.58 18.61183 4.364341 32.417469 2.218888
2003-09-18 08:06:01 51°23.14 3°8.41 18.635106 4.371303 32.457264 2.252597
2003-09-18 08:07:01 51°23.31 3°8.31 18.564429 4.366451 32.421495 2.151469
2003-09-18 08:08:01 51°23.51 3°8.27 18.533114 4.372991 32.52424 2.117759
2003-09-18 08:09:01 51°23.74 3°8.24 18.558646 4.373941 32.53891 2.218888
2003-09-18 08:10:01 51°23.97 3°8.16 18.579669 4.372358 32.504311 2.08405
2003-09-18 08:11:01 51°24.13 3°7.95 18.588877 4.380902 32.567405 2.117759
2003-09-18 08:12:01 51°24.22 3°7.74 18.586977 4.386704 32.607136 2.016631
2003-09-18 08:13:01 51°24.24 3°7.55 18.558853 4.387548 32.623764 2.016631
2003-09-18 08:14:01 51°24.23 3°7.39 18.569633 4.386071 32.627902 1.915503
2003-09-18 08:15:01 51°24.2 3°7.22 18.578554 4.387653 32.629735 1.915503
2003-09-18 08:16:01 51°24.15 3°6.97 18.592923 4.389024 32.63321 2.016631
2003-09-18 08:17:01 51°24.23 3°6.84 18.612903 4.391556 32.639535 1.915503
2003-09-18 08:18:01 51°24.28 3°6.94 18.621859 4.396091 32.663637 1.848084
2003-09-18 08:19:01 51°24.29 3°7 18.613357 4.396724 32.669461 1.848084
2003-09-18 08:20:01 51°24.3 3°7.01 18.608363 4.394826 32.657649 1.881794
2003-09-18 08:21:01 51°24.3 3°7.03 18.603409 4.393665 32.651971 1.780665
2003-09-18 08:22:01 51°24.31 3°7.04 18.602253 4.392822 32.647789 1.814375
2003-09-18 08:23:01 51°24.32 3°7.05 18.600148 4.392611 32.647734 1.814375
2003-09-18 08:24:01 51°24.29 3°7.08 18.59474 4.385965 32.593089 1.949212
2003-09-18 08:25:01 51°24.29 3°7.07 18.592304 4.388286 32.618587 1.949212
2003-09-18 08:26:01 51°24.28 3°7.05 18.589331 4.387126 32.610642 1.982922
2003-09-18 08:27:01 51°24.27 3°7.03 18.586688 4.387442 32.614403 1.848084
2003-09-18 08:28:01 51°24.27 3°7.01 18.591024 4.389341 32.631312 1.915503
2003-09-18 08:29:01 51°24.28 3°7 18.589909 4.389868 32.633998 1.848084
2003-09-18 08:30:01 51°24.29 3°6.99 18.589331 4.389552 32.6325 1.915503
2003-09-18 08:31:01 51°24.3 3°6.98 18.588505 4.389341 32.630747 1.848084
2003-09-18 08:32:01 51°24.31 3°6.97 18.587266 4.389446 32.632755 1.915503
2003-09-18 08:33:01 51°24.32 3°6.96 18.587225 4.389341 32.631312 1.881794
2003-09-18 08:34:01 51°24.33 3°6.96 18.587968 4.389552 32.6325 1.881794
2003-09-18 08:35:01 51°24.34 3°6.96 18.588092 4.389974 32.634875 1.848084
2003-09-18 08:36:01 51°24.34 3°6.96 18.584417 4.389235 32.630436 1.982922
2003-09-18 08:37:01 51°24.34 3°6.95 18.583591 4.388919 32.627806 1.949212
2003-09-18 08:38:01 51°24.34 3°6.94 18.58132 4.388813 32.629758 2.016631
2003-09-18 08:39:01 51°24.34 3°6.93 18.57463 4.388392 32.630779 1.982922
2003-09-18 08:40:01 51°24.34 3°6.91 18.57781 4.388602 32.6314 1.982922
2003-09-18 08:41:01 51°24.34 3°6.89 18.574176 4.388181 32.629591 2.016631
2003-09-18 08:42:01 51°24.35 3°6.86 18.57397 4.387864 32.630357 1.949212
2003-09-18 08:43:01 51°24.35 3°6.82 18.570955 4.387548 32.626594 1.915503
2003-09-18 08:44:01 51°24.37 3°6.77 18.572524 4.38797 32.628403 1.881794
2003-09-18 08:45:01 51°24.39 3°6.71 18.579834 4.38797 32.627272 1.982922
2003-09-18 08:46:01 51°24.45 3°6.63 18.586771 4.388813 32.628627 1.949212
2003-09-18 08:47:01 51°24.56 3°6.65 18.596432 4.39029 32.63411 2.016631
2003-09-18 08:48:01 51°24.69 3°6.72 18.606794 4.391345 32.636651 2.016631
2003-09-18 08:49:01 51°24.85 3°6.82 18.622024 4.393454 32.643995 2.016631
2003-09-18 08:50:01 51°25.02 3°6.93 18.643481 4.397568 32.665718 2.016631
2003-09-18 08:51:01 51°25.2 3°7.04 18.660395 4.403158 32.6929 1.949212
2003-09-18 08:52:01 51°25.37 3°7.15 18.663323 4.406534 32.716959 1.915503
2003-09-18 08:53:01 51°25.56 3°7.28 18.689426 4.411914 32.752554 1.949212
2003-09-18 08:54:01 51°25.75 3°7.41 18.693508 4.418665 32.792149 1.814375
2003-09-18 08:55:01 51°25.96 3°7.55 18.677015 4.419614 32.798327 1.848084
2003-09-18 08:56:01 51°26.16 3°7.7 18.661673 4.414973 32.77965 1.780665
2003-09-18 08:57:01 51°26.37 3°7.84 18.65858 4.413074 32.768989 1.746956
2003-09-18 08:58:01 51°26.58 3°7.98 18.661962 4.413074 32.77069 1.679537
2003-09-18 08:59:01 51°26.78 3°8.14 18.655899 4.414234 32.778623 1.645828
2003-09-18 09:00:01 51°26.99 3°8.28 18.645173 4.416766 32.80589 1.578409
2003-09-18 09:01:01 51°27.2 3°8.43 18.636385 4.417821 32.823742 1.612118
2003-09-18 09:02:01 51°27.4 3°8.58 18.633744 4.420353 32.848189 1.5447
2003-09-18 09:03:01 51°27.61 3°8.73 18.641295 4.424467 32.882379 1.578409
2003-09-18 09:04:01 51°27.82 3°8.88 18.643523 4.433961 32.955592 1.645828
2003-09-18 09:05:01 51°27.98 3°8.98 18.660106 4.434172 32.953352 1.645828
2003-09-18 09:06:01 51°28.1 3°9.02 18.670334 4.435121 32.945845 1.612118
2003-09-18 09:07:01 51°28.14 3°9.05 18.675448 4.436493 32.952677 1.645828
2003-09-18 09:08:01 51°28.16 3°9.06 18.670046 4.436809 32.954736 1.578409
2003-09-18 09:09:01 51°28.18 3°9.06 18.674541 4.436915 32.956753 1.5447
2003-09-18 09:10:01 51°28.19 3°9.07 18.677593 4.437336 32.958548 1.5447
2003-09-18 09:11:01 51°28.21 3°9.07 18.681015 4.43818 32.961567 1.578409
2003-09-18 09:12:01 51°28.22 3°9.08 18.679984 4.438286 32.960163 1.578409
2003-09-18 09:13:01 51°28.23 3°9.08 18.680397 4.438391 32.96332 1.578409
2003-09-18 09:14:01 51°28.24 3°9.08 18.684025 4.439024 32.965727 1.578409
2003-09-18 09:15:01 51°28.26 3°9.09 18.686128 4.438813 32.962834 1.612118
2003-09-18 09:16:01 51°28.27 3°9.09 18.687035 4.439552 32.966117 1.612118
2003-09-18 09:17:01 51°28.28 3°9.09 18.689303 4.439763 32.968439 1.578409
2003-09-18 09:18:01 51°28.29 3°9.11 18.693055 4.439868 32.965895 1.578409
2003-09-18 09:19:01 51°28.34 3°9.18 18.699816 4.440606 32.972027 1.612118
2003-09-18 09:20:01 51°28.41 3°9.1 18.711811 4.443771 32.988615 1.645828
2003-09-18 09:21:01 51°28.38 3°8.99 18.703855 4.445775 33.000125 1.645828
2003-09-18 09:22:01 51°28.3 3°9.02 18.695528 4.442927 32.983318 1.645828
2003-09-18 09:23:01 51°28.2 3°9.08 18.69289 4.441661 32.977367 1.612118
2003-09-18 09:24:01 51°28.16 3°9.1 18.686128 4.439657 32.963003 1.612118
2003-09-18 09:25:01 51°28.16 3°9.11 18.683572 4.439024 32.961736 1.612118
2003-09-18 09:26:01 51°28.17 3°9.12 18.684767 4.438497 32.960205 1.578409
2003-09-18 09:27:01 51°28.17 3°9.12 18.688519 4.438813 32.960554 1.578409
2003-09-18 09:28:01 51°28.18 3°9.13 18.691034 4.439235 32.962348 1.5447
2003-09-18 09:29:01 51°28.18 3°9.14 18.691117 4.439657 32.963573 1.578409
2003-09-18 09:30:01 51°28.19 3°9.15 18.694085 4.439551 32.961557 1.578409
2003-09-18 09:31:01 51°28.18 3°9.16 18.693302 4.439868 32.962475 1.5447
2003-09-18 09:32:01 51°28.18 3°9.16 18.694951 4.44029 32.965979 1.612118
2003-09-18 09:33:01 51°28.17 3°9.17 18.696435 4.441134 32.973557 1.5447
2003-09-18 09:34:01 51°28.17 3°9.18 18.697136 4.441345 32.971889 1.5447
2003-09-18 09:35:01 51°28.16 3°9.18 18.697136 4.440606 32.965758 1.5447
2003-09-18 09:36:01 51°28.16 3°9.19 18.695569 4.441134 32.969567 1.5447
2003-09-18 09:37:01 51°28.15 3°9.19 18.69759 4.440923 32.968385 1.5447
2003-09-18 09:38:01 51°28.12 3°9.16 18.698909 4.441134 32.967858 1.578409
2003-09-18 09:39:01 51°28.12 3°9.05 18.69458 4.439762 32.95989 1.578409
2003-09-18 09:40:01 51°28.15 3°8.88 18.695116 4.438919 32.954592 1.51099
2003-09-18 09:41:01 51°28.17 3°8.71 18.694621 4.438918 32.954022 1.477281
2003-09-18 09:42:01 51°28.2 3°8.54 18.694786 4.438813 32.953146 1.51099
2003-09-18 09:43:01 51°28.22 3°8.37 18.689426 4.438497 32.952797 1.5447
2003-09-18 09:44:01 51°28.25 3°8.2 18.685674 4.437969 32.951266 1.5447
2003-09-18 09:45:01 51°28.27 3°8.02 18.679283 4.438919 32.958011 1.578409
2003-09-18 09:46:01 51°28.3 3°7.85 18.673469 4.43818 32.959857 1.5447
2003-09-18 09:47:01 51°28.33 3°7.67 18.674706 4.442084 32.997987 1.409862
2003-09-18 09:48:01 51°28.35 3°7.5 18.671778 4.443455 33.007097 1.443571
2003-09-18 09:49:01 51°28.38 3°7.33 18.670087 4.443982 33.012622 1.443571
2003-09-18 09:50:01 51°28.4 3°7.16 18.686046 4.443455 33.007097 1.477281
2003-09-18 09:51:01 51°28.42 3°6.99 18.681592 4.446303 33.021054 1.51099
2003-09-18 09:52:01 51°28.45 3°6.81 18.682953 4.446198 33.020177 1.477281
2003-09-18 09:53:01 51°28.47 3°6.64 18.686747 4.445881 33.023259 1.51099
2003-09-18 09:54:01 51°28.49 3°6.47 18.690911 4.447252 33.02837 1.51099
2003-09-18 09:55:01 51°28.51 3°6.3 18.698414 4.44778 33.031038 1.477281
2003-09-18 09:56:01 51°28.54 3°6.13 18.713459 4.448835 33.027809 1.409862
2003-09-18 09:57:02 51°28.56 3°5.96 18.714078 4.449362 33.026481 1.443571
2003-09-18 09:58:01 51°28.58 3°5.79 18.72026 4.448834 33.018108 1.51099
2003-09-18 09:59:01 51°28.6 3°5.62 18.715067 4.448307 33.012589 1.443571
2003-09-18 10:00:01 51°28.62 3°5.45 18.715685 4.447885 33.013078 1.477281
2003-09-18 10:01:01 51°28.62 3°5.28 18.725493 4.448623 33.014075 1.51099
2003-09-18 10:02:01 51°28.61 3°5.11 18.718776 4.450311 33.023523 1.477281
2003-09-18 10:03:01 51°28.6 3°4.94 18.712223 4.449678 33.030821 1.5447
2003-09-18 10:04:01 51°28.59 3°4.77 18.717169 4.451261 33.040535 1.51099
2003-09-18 10:05:01 51°28.57 3°4.6 18.713707 4.451577 33.043163 1.51099
2003-09-18 10:06:01 51°28.56 3°4.43 18.729985 4.453371 33.052343 1.443571
2003-09-18 10:07:01 51°28.54 3°4.26 18.73942 4.456852 33.065824 1.612118
2003-09-18 10:08:01 51°28.53 3°4.09 18.767884 4.458645 33.064154 1.645828
2003-09-18 10:09:01 51°28.49 3°3.93 18.752809 4.45759 33.057684 1.612118
2003-09-18 10:10:01 51°28.5 3°3.79 18.748813 4.457062 33.056731 1.746956
2003-09-18 10:11:01 51°28.56 3°3.72 18.752233 4.453476 33.035528 1.713247
2003-09-18 10:12:01 51°28.61 3°3.68 18.766154 4.454952 33.028397 1.645828
2003-09-18 10:13:01 51°28.65 3°3.68 18.759976 4.458328 33.06324 1.679537
2003-09-18 10:14:01 51°28.68 3°3.71 18.76253 4.458223 33.060653 1.645828
2003-09-18 10:15:01 51°28.69 3°3.74 18.762077 4.45875 33.059324 1.612118
2003-09-18 10:16:01 51°28.69 3°3.73 18.790161 4.458328 33.055824 1.679537
2003-09-18 10:17:01 51°28.7 3°3.72 18.748525 4.45664 33.054942 1.679537
2003-09-18 10:18:01 51°28.7 3°3.71 18.749884 4.456429 33.056615 1.713247
2003-09-18 10:19:01 51°28.7 3°3.7 18.759894 4.456746 33.052965 1.780665
2003-09-18 10:20:01 51°28.69 3°3.7 18.762324 4.457062 33.049886 1.713247
2003-09-18 10:21:01 51°28.69 3°3.69 18.76809 4.456957 33.047301 1.780665
2003-09-18 10:22:01 51°28.69 3°3.69 18.767966 4.457695 33.050005 1.746956
2003-09-18 10:23:01 51°28.68 3°3.71 18.759812 4.457273 33.051637 1.679537
2003-09-18 10:24:01 51°28.67 3°3.72 18.774061 4.45759 33.046849 1.645828
2003-09-18 10:25:01 51°28.67 3°3.73 18.763807 4.457062 33.047606 1.679537
2003-09-18 10:26:01 51°28.66 3°3.74 18.773814 4.456746 33.046691 1.679537
2003-09-18 10:27:01 51°28.66 3°3.75 18.765166 4.457273 33.045935 1.713247
2003-09-18 10:28:01 51°28.65 3°3.75 18.75388 4.456218 33.046878 1.746956
2003-09-18 10:29:01 51°28.64 3°3.75 18.767349 4.456535 33.045511 1.780665
2003-09-18 10:30:01 51°28.64 3°3.75 18.766154 4.456535 33.046652 1.746956
2003-09-18 10:31:01 51°28.63 3°3.76 18.805762 4.457484 33.043694 1.746956
2003-09-18 10:32:01 51°28.62 3°3.76 18.773979 4.457695 33.046014 1.746956
2003-09-18 10:33:01 51°28.61 3°3.76 18.77715 4.458433 33.048148 1.746956
2003-09-18 10:34:01 51°28.61 3°3.76 18.77052 4.458222 33.046968 1.780665
2003-09-18 10:35:01 51°28.6 3°3.76 18.775503 4.457695 33.046014 1.780665
2003-09-18 10:36:01 51°28.59 3°3.75 18.780773 4.458539 33.046743 1.746956
2003-09-18 10:37:01 51°28.59 3°3.75 18.780403 4.458328 33.047843 1.780665
2003-09-18 10:38:01 51°28.58 3°3.75 18.788514 4.459066 33.048836 1.746956
2003-09-18 10:39:01 51°28.57 3°3.76 18.787238 4.460121 33.051314 1.746956
2003-09-18 10:40:01 51°28.55 3°3.76 18.785426 4.460121 33.054163 1.780665
2003-09-18 10:41:01 51°28.54 3°3.77 18.800494 4.459594 33.05207 1.780665
2003-09-18 10:42:01 51°28.53 3°3.78 18.808026 4.461176 33.052082 1.746956
2003-09-18 10:43:01 51°28.52 3°3.8 18.810249 4.462125 33.057672 1.746956
2003-09-18 10:44:01 51°28.51 3°3.82 18.789378 4.462758 33.062918 1.713247
2003-09-18 10:45:01 51°28.51 3°3.85 18.784602 4.46202 33.066485 1.780665
2003-09-18 10:46:01 51°28.52 3°3.87 18.774679 4.461809 33.066446 1.746956
2003-09-18 10:47:01 51°28.53 3°3.88 18.772538 4.45991 33.067808 1.713247
2003-09-18 10:48:01 51°28.54 3°3.88 18.787937 4.460543 33.065643 1.713247
2003-09-18 10:49:05 51°28.56 3°3.88 18.742593 4.460227 33.067581 1.645828
2003-09-18 10:50:05 51°28.57 3°3.88 18.744982 4.455058 33.051511 1.679537
2003-09-18 10:51:05 51°28.59 3°3.88 18.757175 4.455269 33.047556 1.713247
2003-09-18 10:52:05 51°28.61 3°3.87 18.765331 4.456957 33.050152 1.713247
2003-09-18 10:53:05 51°28.63 3°3.86 18.778714 4.457062 33.044755 1.645828
2003-09-18 10:54:09 51°28.65 3°3.85 18.764672 4.456218 33.040036 1.713247
2003-09-18 10:55:09 51°28.67 3°3.85 18.769161 4.454319 33.025997 1.713247
2003-09-18 10:56:09 51°28.69 3°3.84 18.775255 4.455269 33.032161 1.746956
2003-09-18 10:57:09 51°28.71 3°3.83 18.764507 4.456324 33.034641 1.746956
2003-09-18 10:58:09 51°28.72 3°3.82 18.770396 4.455691 33.028823 1.746956
2003-09-18 10:59:09 51°28.74 3°3.81 18.776244 4.457062 33.035067 1.780665
2003-09-18 11:00:09 51°28.76 3°3.8 18.783038 4.456534 33.031833 1.780665
2003-09-18 11:01:09 51°28.79 3°3.78 18.782791 4.457484 33.036856 1.780665
2003-09-18 11:02:09 51°28.81 3°3.77 18.777479 4.45664 33.02929 1.780665
2003-09-18 11:03:09 51°28.84 3°3.76 18.796542 4.456745 33.026178 1.713247
2003-09-18 11:04:09 51°28.86 3°3.77 18.812307 4.458011 33.030977 1.679537
2003-09-18 11:05:09 51°28.87 3°3.79 18.823295 4.460332 33.029149 1.679537
2003-09-18 11:06:09 51°28.86 3°3.84 18.806874 4.461492 33.029659 1.713247
2003-09-18 11:07:09 51°28.78 3°3.84 18.816134 4.459382 33.024129 1.780665
2003-09-18 11:08:09 51°28.63 3°3.66 18.789584 4.459804 33.032746 1.949212
2003-09-18 11:09:09 51°28.46 3°3.4 18.780403 4.457484 33.037426 1.949212
2003-09-18 11:10:09 51°28.28 3°3.15 18.802675 4.459488 33.04094 1.848084
2003-09-18 11:11:09 51°28.1 3°2.89 18.828727 4.462231 33.045449 1.949212
2003-09-18 11:12:09 51°27.92 3°2.64 18.81811 4.462125 33.039453 1.949212
2003-09-18 11:13:09 51°27.74 3°2.39 18.798641 4.452525 32.967332 1.780665
2003-09-18 11:14:09 51°27.56 3°2.14 18.793166 4.446407 32.93482 1.848084
2003-09-18 11:15:10 51°27.38 3°1.88 18.79366 4.447356 32.940414 1.848084
2003-09-18 11:16:10 51°27.2 3°1.63 18.784685 4.446512 32.935126 1.814375
2003-09-18 11:17:10 51°27.02 3°1.38 18.757958 4.446302 32.940191 1.814375
2003-09-18 11:18:16 51°26.82 3°1.1 18.802511 4.446618 32.945654 1.780665
2003-09-18 11:19:16 51°26.64 3°0.85 18.816752 4.444719 32.903823 1.814375
2003-09-18 11:20:15 51°26.46 3°0.61 18.826834 4.439444 32.854496 1.848084
2003-09-18 11:21:15 51°26.27 3°0.39 18.839424 4.437123 32.826809 1.780665
2003-09-18 11:22:15 51°26.07 3°0.19 18.816875 4.436279 32.818697 1.848084
2003-09-18 11:23:16 51°25.83 3°0.11 18.857894 4.432798 32.799498 1.713247
2003-09-18 11:24:16 51°25.6 3°0.06 18.836297 4.430266 32.761625 1.881794
2003-09-18 11:25:16 51°25.37 3°0.01 18.83893 4.427312 32.736638 1.881794
2003-09-18 11:26:16 51°25.14 2°59.95 18.810537 4.42668 32.75621 1.848084
2003-09-18 11:27:16 51°24.91 2°59.89 18.812307 4.428157 32.762787 1.814375
2003-09-18 11:28:15 51°24.68 2°59.83 18.776326 4.430899 32.786609 1.780665
2003-09-18 11:29:15 51°24.45 2°59.83 18.820661 4.435119 32.825486 1.713247
2003-09-18 11:30:15 51°24.22 2°59.86 18.812595 4.437334 32.844954 1.746956
2003-09-18 11:31:15 51°23.98 2°59.87 18.790408 4.426785 32.750313 1.982922
2003-09-18 11:32:15 51°23.75 2°59.86 18.704226 4.415815 32.704069 2.08405
2003-09-18 11:33:15 51°23.53 2°59.86 18.676644 4.402947 32.652161 2.151469
2003-09-18 11:34:15 51°23.4 2°59.84 18.74181 4.398833 32.619182 2.151469
2003-09-18 11:35:15 51°23.3 2°59.85 18.691777 4.403684 32.614887 1.982922
2003-09-18 11:36:15 51°23.26 2°59.95 18.66951 4.397673 32.632123 1.679537
2003-09-18 11:37:15 51°23.25 2°59.97 18.736165 4.395141 32.581258 1.848084
2003-09-18 11:38:15 51°23.25 2°59.98 18.768625 4.398515 32.567037 2.016631
2003-09-18 11:39:15 51°23.24 2°59.99 18.766772 4.399887 32.571645 2.08405
2003-09-18 11:40:15 51°23.24 3°0 18.775955 4.400414 32.56927 2.117759
2003-09-18 11:41:15 51°23.24 3°0 18.76253 4.40052 32.575759 2.117759
2003-09-18 11:42:15 51°23.24 3°0.01 18.770973 4.400203 32.575949 2.016631
2003-09-18 11:43:15 51°23.24 3°0.02 18.786867 4.40168 32.574127 2.016631
2003-09-18 11:44:15 51°23.24 3°0.02 18.794689 4.402523 32.573809 2.050341
2003-09-18 11:45:15 51°23.24 3°0.03 18.815476 4.404316 32.577975 2.050341
2003-09-18 11:46:15 51°23.24 3°0.02 18.83029 4.40611 32.579896 2.016631
2003-09-18 11:47:15 51°23.24 3°0.02 18.842551 4.40843 32.58898 1.949212
2003-09-18 11:48:15 51°23.24 3°0.02 18.850614 4.410118 32.595075 1.982922
2003-09-18 11:49:15 51°23.24 3°0.01 18.855056 4.412122 32.604904 1.915503
2003-09-18 11:50:21 51°23.24 3°0 18.858347 4.413388 32.617607 1.915503
2003-09-18 11:51:21 51°23.23 3°0 18.860074 4.415392 32.623504 1.814375
2003-09-18 11:52:21 51°23.23 2°59.99 18.856413 4.41613 32.629604 1.848084
2003-09-18 11:53:21 51°23.22 2°59.98 18.869451 4.415392 32.629678 1.848084
2003-09-18 11:54:21 51°23.22 2°59.97 18.886186 4.41729 32.632456 1.780665
2003-09-18 11:55:21 51°23.21 2°59.97 18.886186 4.419505 32.636725 1.780665
2003-09-18 11:56:21 51°23.21 2°59.97 18.897574 4.421088 32.643058 1.780665
2003-09-18 11:57:21 51°23.21 2°59.96 18.881334 4.420771 32.648299 1.814375
2003-09-18 11:58:21 51°23.21 2°59.95 18.871754 4.420244 32.652362 1.814375
2003-09-18 11:59:21 51°23.22 2°59.94 18.859169 4.420561 32.666208 1.915503
2003-09-18 12:00:21 51°23.23 2°59.93 18.867765 4.420666 32.671013 1.881794
2003-09-18 12:01:21 51°23.23 2°59.92 18.868299 4.422565 32.678273 1.982922
2003-09-18 12:02:21 51°23.24 2°59.91 18.861678 4.423725 32.688984 1.915503
2003-09-18 12:03:21 51°23.25 2°59.9 18.85958 4.423093 32.689938 1.949212
2003-09-18 12:04:21 51°23.26 2°59.89 18.850079 4.423093 32.688252 2.016631
2003-09-18 12:05:21 51°23.27 2°59.88 18.855056 4.422354 32.687772 2.016631
2003-09-18 12:06:21 51°23.29 2°59.8 18.852177 4.422038 32.684594 1.982922
2003-09-18 12:07:21 51°23.22 2°59.63 18.808603 4.419718 32.695229 1.915503
2003-09-18 12:08:21 51°23.09 2°59.45 18.808232 4.416975 32.657359 1.949212
2003-09-18 12:09:21 51°22.92 2°59.21 18.698125 4.411596 32.664623 2.151469
2003-09-18 12:10:21 51°22.73 2°58.96 18.671077 4.398622 32.617997 2.151469
2003-09-18 12:11:21 51°22.55 2°58.71 18.690663 4.391343 32.561043 2.218888
2003-09-18 12:12:21 51°22.37 2°58.46 18.756887 4.389444 32.535746 2.286306
2003-09-18 12:13:21 51°22.19 2°58.21 18.769696 4.39092 32.496335 2.353725
2003-09-18 12:14:21 51°22.01 2°57.97 18.761541 4.388916 32.474156 2.387435
2003-09-18 12:15:21 51°21.82 2°57.72 18.784397 4.390076 32.483192 2.387435
2003-09-18 12:16:21 51°21.64 2°57.47 18.769078 4.387123 32.458206 2.387435
2003-09-18 12:17:21 51°21.46 2°57.22 18.770396 4.383958 32.43763 2.353725
2003-09-18 12:18:21 51°21.28 2°56.97 18.785344 4.386912 32.454223 2.387435
2003-09-18 12:19:21 51°21.1 2°56.72 18.78979 4.383958 32.416949 2.454853
2003-09-18 12:20:21 51°20.92 2°56.47 18.813336 4.388388 32.449654 2.454853
2003-09-18 12:21:21 51°20.74 2°56.21 18.83099 4.389548 32.443595 2.454853
2003-09-18 12:22:21 51°20.56 2°55.95 18.826381 4.390181 32.446589 2.488563
2003-09-18 12:23:21 51°20.39 2°55.69 18.838601 4.389654 32.438881 2.522272
2003-09-18 12:24:21 51°20.21 2°55.43 18.811401 4.390076 32.442925 2.488563
2003-09-18 12:25:21 51°20.03 2°55.18 18.802799 4.389021 32.439238 2.488563
2003-09-18 12:26:21 51°19.85 2°54.92 18.840247 4.387755 32.438276 2.555982
2003-09-18 12:27:21 51°19.67 2°54.66 18.84613 4.390603 32.440022 2.589691
2003-09-18 12:28:21 51°19.49 2°54.41 18.830331 4.391447 32.443083 2.555982
2003-09-18 12:29:21 51°19.32 2°54.15 18.841769 4.391025 32.439598 2.589691
2003-09-18 12:30:22 51°19.13 2°53.89 18.854357 4.390603 32.434998 2.6234
2003-09-18 12:31:22 51°18.95 2°53.63 18.860156 4.391446 32.423556 2.791947
2003-09-18 12:32:22 51°18.77 2°53.38 18.830043 4.391447 32.434153 2.791947
2003-09-18 12:33:22 51°18.59 2°53.12 18.818233 4.38786 32.422395 2.859366
2003-09-18 12:34:21 51°18.42 2°52.86 18.787238 4.389337 32.445204 2.859366
2003-09-18 12:35:21 51°18.23 2°52.64 18.762612 4.389021 32.474468 2.690819
2003-09-18 12:36:22 51°17.99 2°52.53 18.73633 4.395878 32.516045 2.589691
2003-09-18 12:37:22 51°17.76 2°52.43 18.677881 4.40474 32.689063 2.589691
2003-09-18 12:38:21 51°17.53 2°52.37 18.683654 4.416554 32.758784 2.6234
2003-09-18 12:39:21 51°17.29 2°52.39 18.724051 4.42742 32.854026 2.555982
2003-09-18 12:40:21 51°17.09 2°52.56 18.775585 4.443032 32.93581 2.65711
2003-09-18 12:41:21 51°16.9 2°52.76 18.811689 4.463919 33.08508 2.555982
2003-09-18 12:42:21 51°16.69 2°52.93 18.790614 4.480798 33.207901 2.522272
2003-09-18 12:43:21 51°16.49 2°53.1 18.798641 4.484174 33.249075 2.488563
2003-09-18 12:44:21 51°16.28 2°53.27 18.840041 4.484279 33.245365 2.421144
2003-09-18 12:45:21 51°16.08 2°53.45 18.692848 4.440815 32.856228 2.421144
2003-09-18 12:46:21 51°15.88 2°53.62 18.747701 4.426366 32.890187 2.421144
2003-09-18 12:47:21 51°15.68 2°53.8 18.957276 4.443137 32.936116 2.218888
2003-09-18 12:48:21 51°15.49 2°53.98 18.790778 4.440497 32.770699 2.320016
2003-09-18 12:49:21 51°15.29 2°54.16 18.602583 4.415816 32.753226 2.421144
2003-09-18 12:50:21 51°15.09 2°54.33 18.543733 4.396198 32.714967 2.454853
2003-09-18 12:51:21 51°14.9 2°54.5 18.483013 4.384067 32.628225 2.421144
2003-09-18 12:52:21 51°14.71 2°54.67 18.61183 4.374257 32.552845 2.522272
2003-09-18 12:53:21 51°14.54 2°54.87 18.688602 4.375732 32.435606 2.320016
2003-09-18 12:54:21 51°14.39 2°55.09 18.822925 4.37436 32.376684 2.690819
2003-09-18 12:55:21 51°14.24 2°55.3 18.602955 4.15214 30.567371 2.859366
2003-09-18 12:56:21 51°14.11 2°55.44 18.557861 4.039316 29.711529 2.960494
2003-09-18 12:57:21 51°14.01 2°55.51 18.648514 3.989763 29.354763 2.65711
2003-09-18 12:58:21 51°13.93 2°55.57 18.595607 3.847132 28.129244 2.65711
2003-09-18 12:59:21 51°13.86 2°55.61 18.549228 3.894251 28.529181 2.589691
2003-09-18 13:00:21 51°13.8 2°55.66 18.528857 3.928829 28.877884 2.522272
2003-09-18 13:01:21 51°13.75 2°55.72 18.892188 3.401838 24.521097 2.589691
2003-09-18 13:02:21 51°13.71 2°55.79 18.859498 2.944993 20.817922 2.859366
2003-09-18 13:03:21 51°13.67 2°55.87 18.701959 3.194898 22.805554 2.893076
2003-09-18 13:04:21 51°13.64 2°55.95 18.635394 3.449239 24.891646 2.65711
2003-09-18 13:05:21 51°13.62 2°56.02 18.583055 3.661221 26.652826 2.555982
2003-09-18 13:06:21 51°13.61 2°56.08 18.646988 3.506863 25.395619 2.488563
2003-09-18 13:07:21 51°13.6 2°56.1 18.513359 3.666174 26.708038 2.421144
2003-09-18 13:08:25 51°13.6 2°56.11 18.465436 3.887822 28.563205 2.320016
2003-09-18 13:09:25 51°13.6 2°56.11 18.416569 3.946751 29.064247 2.353725
2003-09-18 13:10:25 51°13.6 2°56.11 18.4759 4.033308 29.797336 2.893076